Ogden, IL

1:13 PM CDT on August 30, 2014 (GMT -0500)
Univ Of Illinois-Willard | Change Station
CLOSE
Current Station
Airport
Location: Champaign,
Elevation: 755 ft
Nearby Weather Stations

Elev 755 ft 40.04 °N, 88.28 °W | Updated 20 minutes ago

Scattered Clouds
Scattered Clouds
81 °F
Feels Like 85 °F
N
16
Wind Variable Wind from South

Today
High -- | Low -- °F
--% Chance of Precip.
Yesterday
High -- | Low -- °F
Precip. -- in
6:17 AM 7:26 PM
Waxing Crescent, 23% visible
Pressure 29.93 in
Visibility 10.0 miles
Clouds Scattered Clouds 2400 ft
Heat Index 85 °F
Dew Point 72 °F
Humidity 74%
Rainfall 0.01 in
Snow Depth Not available.
UV 8 out of 12
Pollen 8.60 out of 12
Air Quality Not available.
Flu Activity Not available.
METAR KCMI 301753Z 19014KT 10SM SCT024 27/22 A2995 RMK AO2 SLP135 60001 T02720222 10272 20222 58005

More Conditions Fewer Conditions

Pressure 29.93 in
Visibility 10.0 miles
Clouds Scattered Clouds 2400 ft
Heat Index 85 °F
Dew Point 72 °F
Humidity 74%
Rainfall 0.01 in
Snow Depth Not available.
UV 8 out of 12
Pollen 8.60 out of 12
Air Quality Not available.
Flu Activity Not available.
METAR KCMI 301753Z 19014KT 10SM SCT024 27/22 A2995 RMK AO2 SLP135 60001 T02720222 10272 20222 58005

More Conditions Fewer Conditions

10-Day Weather Forecast

Almanac

Astronomy

Aug. 30, 2014 Rise Set
Actual Time 6:17 AM CDT 7:26 PM CDT
Civil Twilight 5:49 AM CDT 7:54 PM CDT
Nautical Twilight 5:16 AM CDT 8:27 PM CDT
Astronomical Twilight 4:41 AM CDT 9:02 PM CDT
Moon 11:05 AM CDT 10:00 PM CDT
Length of Visible Light 14h 04m
Length of Day
13h 08m
Tomorrow will be 2m 31s shorter.
Waxing Crescent, 23% of the Moon is Illuminated
Today
Waxing Crescent
Sep 2
First Quarter
Sep 8
Full
Sep 15
Last Quarter
Sep 24
New

Today's Extremes

State Highs State Lows

Community

WunderPhotos

Upload Photos

1,748,583 photos uploaded!

WunderBlogs® & News

Nearby

Snow Depth

Station Depth Elevation
No new snow has been reported.

Earthquake Activity

City Distance Mag. Time & Date
No recent earthquake activity has been reported nearby.
Minimum magnitude displayed is 2.5.

Coastal Water Temperatures

Place Temperature
No Stations Reporting

Nearby Weather Stations